createdAt,value
2023-01-09T00:03:56.913Z,14.68
2023-01-09T00:24:02.631Z,11.46
2023-01-09T00:44:08.381Z,11.73
2023-01-09T01:04:14.292Z,10.66
2023-01-09T01:24:20.080Z,11.02
2023-01-09T01:44:25.850Z,12.99
2023-01-09T02:04:31.611Z,13.33
2023-01-09T02:24:37.317Z,13.58
2023-01-09T02:44:43.035Z,13.11
2023-01-09T03:04:48.690Z,15.18
2023-01-09T03:24:54.410Z,14.11
2023-01-09T03:45:00.114Z,14.99
2023-01-09T04:05:05.822Z,13.63
2023-01-09T04:25:11.560Z,14.83
2023-01-09T04:45:17.309Z,14.06
2023-01-09T05:05:22.984Z,15.06
2023-01-09T05:25:29.678Z,13.63
2023-01-09T05:45:35.465Z,14.81
2023-01-09T06:05:41.193Z,15.15
2023-01-09T06:25:46.881Z,15.10
2023-01-09T06:45:52.661Z,13.56
2023-01-09T07:05:58.325Z,15.08
2023-01-09T07:26:04.095Z,14.00
2023-01-09T07:46:09.796Z,13.01
2023-01-09T08:06:15.477Z,10.21
2023-01-09T08:26:21.181Z,8.90
2023-01-09T08:46:26.950Z,2.60
2023-01-09T09:06:32.649Z,1.23
2023-01-09T09:26:38.366Z,1.06
2023-01-09T09:46:44.139Z,1.50
2023-01-09T10:06:50.286Z,2.99
2023-01-09T10:26:56.084Z,1.57
2023-01-09T10:47:01.875Z,1.46
2023-01-09T11:07:07.550Z,1.84
2023-01-09T11:27:13.753Z,1.69
2023-01-09T11:47:19.922Z,1.52
2023-01-09T12:07:25.662Z,0.92
2023-01-09T12:27:31.833Z,1.94
2023-01-09T12:47:37.567Z,2.66
2023-01-09T13:07:43.308Z,2.66
2023-01-09T13:27:49.455Z,1.52
2023-01-09T13:47:55.180Z,2.87
2023-01-09T14:08:00.904Z,1.29
2023-01-09T14:28:06.649Z,3.10
2023-01-09T14:48:12.460Z,1.81
2023-01-09T15:08:18.218Z,4.85
2023-01-09T15:28:23.913Z,2.21
2023-01-09T15:48:29.638Z,4.76
2023-01-09T16:08:35.350Z,4.72
2023-01-09T16:28:41.523Z,5.43
2023-01-09T16:48:47.269Z,2.84
2023-01-09T17:08:52.952Z,6.63
2023-01-09T17:28:58.645Z,4.99
2023-01-09T17:49:04.355Z,4.31
2023-01-09T18:09:10.101Z,4.69
2023-01-09T18:29:15.869Z,6.13
2023-01-09T18:49:21.568Z,2.36
2023-01-09T19:09:27.331Z,2.45
2023-01-09T19:29:34.683Z,2.33
2023-01-09T19:49:38.285Z,2.02
2023-01-09T20:09:44.059Z,1.79
2023-01-09T20:29:49.785Z,1.13
2023-01-09T20:49:55.478Z,1.38
2023-01-09T21:10:01.138Z,6.44
2023-01-09T21:30:06.860Z,3.86
2023-01-09T21:50:12.554Z,2.99
2023-01-09T22:10:18.404Z,1.69
2023-01-09T22:30:24.159Z,1.24
2023-01-09T22:50:29.811Z,1.98
2023-01-09T23:10:35.560Z,1.47
2023-01-09T23:30:41.354Z,1.38
2023-01-09T23:50:47.014Z,1.13
